Airfield :







YOU CAN JOIN US ON...

 
LOGIN :

Register | Disclaimer

   EN    FR    IT 

 









Legend :    VFR   Marginal VFR   IFR   Intensive IFR   Very Intensive IFR
Visi :
Ceiling :
>= 8 km
>= 3000ft
5 to 8 km
1000 to 3000 ft
1500m to 5 km
500 to 1000 ft
800 to 1500m
200 to 500 ft
< 800m
< 200 ft
Symbols :   Thunderstorms  Fog  Heavy snow  Heavy precipitations  Wind > 20 kt







- Airport Elevation : 288 ft


KLEW - Auburn Lewiston Municipal

CURRENT METAR :
  • 211056Z AUTO 00000KT 10SM CLR M03/M04 A3021 RMK AO2 SLP248 T10331044 FZRANO

EXPIRED METARs :
  • 210956Z AUTO 00000KT 10SM FEW120 M04/M05 A3021 RMK AO2 SLP248 T10441050 FZRANO
  • 210856Z AUTO 00000KT 10SM CLR M05/M06 A3022 RMK AO2 SLP250 T10501061 56010 FZRANO

TAF N/A
KZBW FIR / North America



MET'MAP, your aeronautical weather chart ! - Copyright ORBIFLY December 2007 - Disclaimer

ORBIFLY MET'MAP TEAM :

Programming & Development : Alexandra Zaïnal
Concept & Development : Baudouin d'Aumeries
Co-Development & Prog : Marc-Olivier Méhu
Technical & hardware support : Manuel Goepfert

Contact : metmap@orbifly.com




SOURCES & CREDITS :

   NOAA